Lindenberg, Germany

1:44 PM CET on March 05, 2015 (GMT +0100)
Muellrose - Schlaubetal | Change Station
CLOSE
Current Station
Personal Weather Station
Location: Müllrose, BRANDENBURG
Elevation: 138 ft
Nearby Weather Stations

Elev 138 ft 52.23 °N, 14.41 °E | Updated 10 minutes ago

Mostly Cloudy
Mostly Cloudy
44.4 °F
Feels Like 42 °F
N
3.9
Wind Variable Wind from NW
Gusts 11.0 mph

Today
High -- | Low -- °F
--% Chance of Precip.
Yesterday
High -- | Low -- °F
Precip. -- in
6:41 AM 5:49 PM
Full, 100% visible
Pressure 30.48 in
Visibility 6.2 miles
Clouds Mostly Cloudy 2100 ft
Windchill 42 °F
Dew Point 34 °F
Humidity 67%
Rainfall in
Snow Depth Not available.
UV 1.3 out of 12
Pollen Not available.
Air Quality Not available.
Flu Activity Not available.
METAR EDDB 051220Z 31012KT 9999 BKN021 05/01 Q1032 NOSIG

More Conditions Fewer Conditions

Pressure 30.48 in
Visibility 6.2 miles
Clouds Mostly Cloudy 2100 ft
Windchill 42 °F
Dew Point 34 °F
Humidity 67%
Rainfall in
Snow Depth Not available.
UV 1.3 out of 12
Pollen Not available.
Air Quality Not available.
Flu Activity Not available.
METAR EDDB 051220Z 31012KT 9999 BKN021 05/01 Q1032 NOSIG

More Conditions Fewer Conditions

10-Day Weather Forecast

Almanac

Astronomy

Mar. 05, 2015 Rise Set
Actual Time
Civil Twilight
Nautical Twilight
Astronomical Twilight
Moon
Length of Visible Light
Length of Day
Tomorrow will be .
, % of the Moon is Illuminated

Today's Extremes

Country Highs Country Lows

Community

WunderPhotos

Upload Photos

1,802,737 photos uploaded!

WunderBlogs® & News

Nearby

Air Quality

  Air Quality AQ Index Pollutant
Not available.

Snow Depth

Station Depth Elevation

Earthquake Activity

City Distance Mag. Time & Date
Minimum magnitude displayed is 2.5.

Coastal Water Temperatures

Place Temperature

Nearby Weather Stations